Terminal Aerodrome Forecast
Issued by NWS

Home | Current Version | Previous Version | Text Only | Print | Product List | Glossary On
Versions: 1 2 3 4 5 6 7 8 9 10 11 12 13 14
000
FTUS44 KEPZ 190500 RRA
TAFLRU
TAF
KLRU 190541Z 1906/2006 29007KT P6SM SCT030 BKN050
     FM190900 31005KT P6SM SCT040
     FM191100 34004KT 3SM BR SCT001
     FM191500 34008KT P6SM FEW050
     FM200200 33004KT P6SM SKC=

USA.gov is the U.S. government's official web portal to all federal, state and local government web resources and services.